createdAt,value
2022-11-29T00:01:40.867Z,76.70
2022-11-29T00:04:08.839Z,82.70
2022-11-29T00:06:37.445Z,80.50
2022-11-29T00:09:08.922Z,77.70
2022-11-29T00:11:57.053Z,84.20
2022-11-29T00:14:27.642Z,82.00
2022-11-29T00:17:02.031Z,81.80
2022-11-29T00:19:35.330Z,76.70
2022-11-29T00:22:04.040Z,85.00
2022-11-29T00:24:32.663Z,78.20
2022-11-29T00:27:01.510Z,82.90
2022-11-29T00:29:30.465Z,77.30
2022-11-29T00:31:59.158Z,80.00
2022-11-29T00:34:27.193Z,85.30
2022-11-29T00:36:55.117Z,83.70
2022-11-29T00:39:23.311Z,87.10
2022-11-29T00:41:51.273Z,88.30
2022-11-29T00:44:20.578Z,78.90
2022-11-29T00:46:49.668Z,79.00
2022-11-29T00:49:17.639Z,89.90
2022-11-29T00:51:46.794Z,85.00
2022-11-29T00:54:16.015Z,84.10
2022-11-29T00:56:43.859Z,89.10
2022-11-29T00:59:11.787Z,82.80
2022-11-29T01:01:39.833Z,91.40
2022-11-29T01:04:07.772Z,91.20
2022-11-29T01:06:35.621Z,94.30
2022-11-29T01:09:04.399Z,87.30
2022-11-29T01:11:32.416Z,85.00
2022-11-29T01:14:02.190Z,86.60
2022-11-29T01:16:31.934Z,79.80
2022-11-29T01:19:00.613Z,86.20
2022-11-29T01:21:28.851Z,89.90
2022-11-29T01:23:57.538Z,80.80
2022-11-29T01:26:28.199Z,89.50
2022-11-29T01:28:58.610Z,97.20
2022-11-29T01:31:30.258Z,99.20
2022-11-29T01:34:02.445Z,95.40
2022-11-29T01:36:30.834Z,96.20
2022-11-29T01:39:00.727Z,89.60
2022-11-29T01:41:32.014Z,111.90
2022-11-29T01:44:12.059Z,93.40
2022-11-29T01:46:42.623Z,89.10
2022-11-29T01:49:22.946Z,105.40
2022-11-29T01:51:55.678Z,95.00
2022-11-29T01:54:23.739Z,96.50
2022-11-29T01:56:53.253Z,108.80
2022-11-29T01:59:25.709Z,118.40
2022-11-29T02:01:59.751Z,102.50
2022-11-29T02:04:37.176Z,102.60
2022-11-29T02:07:05.344Z,104.50
2022-11-29T02:09:33.678Z,103.50
2022-11-29T02:12:16.692Z,114.50
2022-11-29T02:14:49.565Z,98.90
2022-11-29T02:18:05.165Z,100.40
2022-11-29T02:21:09.889Z,94.00
2022-11-29T02:24:01.363Z,93.00
2022-11-29T02:27:06.982Z,83.70
2022-11-29T02:29:53.686Z,85.50
2022-11-29T02:32:58.971Z,81.00
2022-11-29T02:35:39.413Z,90.50
2022-11-29T02:38:16.546Z,89.30
2022-11-29T02:41:22.457Z,83.10
2022-11-29T02:44:22.651Z,77.70
2022-11-29T02:47:03.430Z,89.30
2022-11-29T02:49:57.031Z,87.40
2022-11-29T02:52:46.945Z,88.70
2022-11-29T02:55:44.132Z,76.80
2022-11-29T02:58:41.507Z,74.10
2022-11-29T03:01:23.505Z,63.10
2022-11-29T03:04:13.981Z,68.40
2022-11-29T03:07:00.573Z,67.90
2022-11-29T03:09:38.936Z,68.20
2022-11-29T03:12:45.408Z,68.40
2022-11-29T03:15:28.294Z,71.30
2022-11-29T03:18:33.463Z,66.30
2022-11-29T03:21:08.884Z,60.50
2022-11-29T03:23:51.524Z,56.20
2022-11-29T03:26:52.467Z,65.50
2022-11-29T03:29:45.687Z,74.50
2022-11-29T03:32:35.354Z,73.60
2022-11-29T03:35:09.233Z,68.30
2022-11-29T03:37:49.116Z,74.20
2022-11-29T03:40:21.284Z,67.90
2022-11-29T03:43:01.728Z,70.10
2022-11-29T03:45:39.103Z,68.80
2022-11-29T03:48:29.425Z,70.70
2022-11-29T03:51:03.958Z,68.00
2022-11-29T03:53:50.530Z,71.60
2022-11-29T03:56:39.631Z,63.20
2022-11-29T03:59:44.392Z,59.30
2022-11-29T04:02:44.933Z,75.60
2022-11-29T04:05:40.333Z,83.80
2022-11-29T04:08:08.198Z,66.80
2022-11-29T04:10:48.020Z,75.80
2022-11-29T04:13:37.436Z,62.90
2022-11-29T04:16:39.750Z,67.80
2022-11-29T04:19:38.284Z,64.80
2022-11-29T04:22:15.354Z,61.80
2022-11-29T04:24:52.126Z,70.00
2022-11-29T04:27:31.072Z,71.00
2022-11-29T04:30:11.549Z,63.00
2022-11-29T04:32:59.014Z,60.90
2022-11-29T04:35:35.785Z,62.00
2022-11-29T04:38:22.248Z,55.60
2022-11-29T04:41:09.816Z,61.10
2022-11-29T04:43:43.872Z,62.30
2022-11-29T04:46:14.707Z,60.10
2022-11-29T04:51:59.016Z,62.30
2022-11-29T04:54:31.182Z,51.90
2022-11-29T04:57:37.699Z,56.90
2022-11-29T05:00:09.952Z,59.30
2022-11-29T05:02:56.239Z,65.70
2022-11-29T05:05:36.446Z,55.90
2022-11-29T05:08:17.526Z,56.60
2022-11-29T05:14:07.641Z,55.80
2022-11-29T05:17:13.899Z,72.60
2022-11-29T05:20:04.893Z,67.70
2022-11-29T05:22:46.497Z,76.00
2022-11-29T05:25:50.443Z,56.50
2022-11-29T05:28:29.276Z,69.20
2022-11-29T05:31:11.376Z,66.00
2022-11-29T05:34:08.308Z,65.20
2022-11-29T05:36:36.163Z,76.00
2022-11-29T05:39:13.177Z,74.00
2022-11-29T05:41:44.083Z,80.50
2022-11-29T05:44:19.790Z,67.90
2022-11-29T05:47:01.836Z,69.20
2022-11-29T05:49:51.731Z,69.70
2022-11-29T05:52:31.901Z,62.80
2022-11-29T05:55:09.046Z,58.10
2022-11-29T05:58:17.385Z,55.60
2022-11-29T06:01:20.824Z,53.10
2022-11-29T06:04:14.606Z,62.90
2022-11-29T06:07:14.268Z,63.20
2022-11-29T06:09:53.489Z,70.20
2022-11-29T06:12:23.842Z,62.30
2022-11-29T06:15:10.530Z,70.70
2022-11-29T06:17:48.764Z,73.70
2022-11-29T06:20:47.909Z,66.30
2022-11-29T06:23:37.193Z,67.50
2022-11-29T06:26:18.580Z,64.10
2022-11-29T06:29:03.674Z,68.30
2022-11-29T06:31:43.457Z,70.90
2022-11-29T06:34:55.802Z,69.50
2022-11-29T06:37:49.380Z,79.10
2022-11-29T06:40:18.180Z,62.50
2022-11-29T06:42:46.016Z,68.10
2022-11-29T06:45:14.994Z,62.80
2022-11-29T06:47:45.075Z,60.20
2022-11-29T06:50:45.578Z,60.50
2022-11-29T06:53:32.525Z,52.90
2022-11-29T06:56:26.822Z,56.30
2022-11-29T06:59:16.455Z,49.20
2022-11-29T07:01:51.410Z,53.10
2022-11-29T07:04:25.348Z,50.40
2022-11-29T07:06:53.471Z,60.30
2022-11-29T07:09:28.175Z,44.10
2022-11-29T07:11:56.292Z,45.50
2022-11-29T07:14:24.469Z,45.20
2022-11-29T07:17:03.649Z,49.00
2022-11-29T07:19:44.036Z,47.10
2022-11-29T07:22:34.196Z,55.80
2022-11-29T07:25:09.086Z,50.50
2022-11-29T07:27:36.870Z,48.20
2022-11-29T07:30:30.280Z,45.90
2022-11-29T07:33:20.816Z,47.50
2022-11-29T07:35:48.700Z,44.40
2022-11-29T07:38:45.917Z,47.00
2022-11-29T07:41:35.732Z,43.30
2022-11-29T07:44:33.137Z,43.70
2022-11-29T07:47:01.152Z,43.20
2022-11-29T07:49:29.128Z,40.80
2022-11-29T07:51:57.040Z,37.60
2022-11-29T07:54:26.175Z,40.00
2022-11-29T07:56:53.991Z,39.70
2022-11-29T07:59:21.823Z,45.20
2022-11-29T08:01:49.710Z,34.00
2022-11-29T08:04:17.672Z,38.90
2022-11-29T08:06:45.589Z,37.30
2022-11-29T08:09:13.467Z,35.90
2022-11-29T08:11:42.066Z,40.20
2022-11-29T08:14:10.509Z,45.60
2022-11-29T08:16:38.478Z,39.00
2022-11-29T08:19:06.980Z,38.60
2022-11-29T08:21:34.927Z,41.80
2022-11-29T08:24:02.876Z,45.40
2022-11-29T08:26:31.804Z,45.60
2022-11-29T08:28:59.977Z,65.40
2022-11-29T08:31:27.824Z,57.00
2022-11-29T08:33:55.783Z,55.50
2022-11-29T08:36:23.644Z,53.90
2022-11-29T08:38:55.831Z,44.10
2022-11-29T08:41:30.267Z,44.60
2022-11-29T08:43:58.205Z,41.60
2022-11-29T08:46:46.083Z,42.20
2022-11-29T08:49:14.742Z,41.40
2022-11-29T08:51:42.639Z,37.80
2022-11-29T08:54:10.637Z,44.70
2022-11-29T08:59:27.102Z,33.90
2022-11-29T09:01:55.127Z,39.30
2022-11-29T09:04:23.042Z,33.70
2022-11-29T09:06:50.956Z,40.70
2022-11-29T09:09:19.026Z,45.00
2022-11-29T09:11:49.394Z,40.30
2022-11-29T09:14:17.902Z,38.30
2022-11-29T09:16:45.903Z,45.60
2022-11-29T09:19:14.584Z,51.20
2022-11-29T09:21:42.480Z,44.90
2022-11-29T09:24:10.798Z,48.30
2022-11-29T09:26:40.671Z,47.30
2022-11-29T09:29:09.251Z,44.20
2022-11-29T09:31:38.041Z,44.70
2022-11-29T09:34:05.823Z,49.80
2022-11-29T09:36:33.740Z,44.30
2022-11-29T09:39:02.977Z,40.40
2022-11-29T09:42:04.345Z,45.70
2022-11-29T09:47:27.874Z,41.00
2022-11-29T09:50:26.864Z,44.90
2022-11-29T09:53:13.574Z,46.50
2022-11-29T09:56:07.763Z,34.70
2022-11-29T09:58:44.923Z,37.00
2022-11-29T10:01:27.030Z,41.40
2022-11-29T10:04:01.735Z,38.70
2022-11-29T10:06:38.945Z,41.90
2022-11-29T10:09:27.440Z,40.90
2022-11-29T10:12:15.000Z,49.20
2022-11-29T10:14:56.845Z,60.70
2022-11-29T10:17:42.589Z,62.80
2022-11-29T10:20:27.237Z,60.70
2022-11-29T10:23:02.538Z,60.40
2022-11-29T10:25:45.370Z,50.20
2022-11-29T10:28:17.359Z,54.60
2022-11-29T10:30:45.496Z,50.40
2022-11-29T10:33:21.193Z,57.40
2022-11-29T10:35:52.901Z,46.10
2022-11-29T10:38:30.840Z,55.20
2022-11-29T10:41:13.573Z,53.20
2022-11-29T10:43:43.142Z,51.20
2022-11-29T10:46:21.219Z,53.60
2022-11-29T10:48:49.177Z,62.50
2022-11-29T10:51:18.151Z,57.20
2022-11-29T10:53:46.809Z,59.10
2022-11-29T10:56:24.279Z,53.30
2022-11-29T10:59:05.372Z,51.70
2022-11-29T11:01:38.428Z,50.90
2022-11-29T11:04:10.055Z,41.30
2022-11-29T11:06:56.500Z,46.60
2022-11-29T11:09:30.403Z,46.50
2022-11-29T11:12:02.901Z,44.80
2022-11-29T11:14:34.561Z,52.70
2022-11-29T11:17:22.991Z,58.80
2022-11-29T11:20:20.278Z,54.40
2022-11-29T11:23:00.963Z,50.70
2022-11-29T11:25:34.543Z,48.50
2022-11-29T11:28:20.857Z,47.00
2022-11-29T11:30:53.825Z,53.10
2022-11-29T11:33:26.838Z,52.50
2022-11-29T11:36:19.208Z,50.30
2022-11-29T11:38:57.951Z,46.70
2022-11-29T11:41:48.479Z,56.50
2022-11-29T11:44:52.436Z,60.50
2022-11-29T11:47:29.548Z,64.00
2022-11-29T11:50:00.489Z,72.40
2022-11-29T11:52:50.318Z,62.20
2022-11-29T11:55:21.576Z,65.30
2022-11-29T11:58:10.384Z,63.40
2022-11-29T12:01:05.067Z,52.40
2022-11-29T12:03:52.592Z,45.40
2022-11-29T12:06:25.454Z,53.00
2022-11-29T12:09:00.761Z,48.20
2022-11-29T12:11:38.074Z,55.70
2022-11-29T12:14:07.965Z,52.20
2022-11-29T12:16:39.125Z,59.00
2022-11-29T12:19:21.476Z,59.00
2022-11-29T12:21:56.007Z,60.70
2022-11-29T12:24:33.157Z,62.10
2022-11-29T12:27:04.933Z,55.00
2022-11-29T12:29:35.046Z,59.10
2022-11-29T12:32:08.933Z,52.90
2022-11-29T12:35:00.266Z,61.70
2022-11-29T12:37:37.427Z,65.20
2022-11-29T12:40:21.587Z,53.90
2022-11-29T12:43:21.094Z,57.90
2022-11-29T12:46:03.921Z,50.20
2022-11-29T12:49:01.585Z,55.20
2022-11-29T12:51:32.474Z,50.80
2022-11-29T12:54:06.398Z,57.60
2022-11-29T12:56:41.379Z,56.10
2022-11-29T12:59:23.574Z,57.00
2022-11-29T13:02:10.268Z,51.90
2022-11-29T13:05:07.520Z,59.70
2022-11-29T13:07:57.206Z,56.90
2022-11-29T13:10:29.054Z,55.50
2022-11-29T13:13:04.706Z,65.10
2022-11-29T13:15:46.529Z,61.10
2022-11-29T13:18:18.676Z,56.90
2022-11-29T13:21:07.225Z,68.80
2022-11-29T13:24:12.556Z,57.10
2022-11-29T13:26:41.990Z,47.80
2022-11-29T13:29:16.532Z,70.10
2022-11-29T13:31:46.813Z,53.00
2022-11-29T13:34:27.031Z,58.20
2022-11-29T13:37:10.498Z,61.20
2022-11-29T13:40:17.005Z,57.00
2022-11-29T13:42:49.700Z,60.70
2022-11-29T13:45:33.612Z,63.40
2022-11-29T13:48:24.937Z,180.10
2022-11-29T13:51:18.954Z,71.40
2022-11-29T13:53:49.159Z,59.50
2022-11-29T13:56:32.768Z,58.80
2022-11-29T13:59:05.830Z,71.20
2022-11-29T14:01:46.471Z,65.70
2022-11-29T14:04:24.206Z,49.80
2022-11-29T14:07:18.578Z,67.00
2022-11-29T14:09:59.597Z,71.70
2022-11-29T14:12:50.857Z,69.90
2022-11-29T14:17:57.868Z,69.00
2022-11-29T14:20:27.928Z,59.80
2022-11-29T14:23:09.646Z,90.90
2022-11-29T14:25:51.477Z,80.20
2022-11-29T14:28:23.170Z,84.30
2022-11-29T14:31:02.026Z,85.40
2022-11-29T14:33:37.325Z,79.80
2022-11-29T14:36:25.414Z,79.90
2022-11-29T14:39:07.923Z,73.10
2022-11-29T14:41:51.097Z,65.40
2022-11-29T14:44:24.260Z,68.50
2022-11-29T14:47:08.089Z,65.30
2022-11-29T14:49:44.664Z,71.30
2022-11-29T14:52:15.411Z,69.30
2022-11-29T14:55:06.356Z,118.10
2022-11-29T14:58:13.632Z,82.10
2022-11-29T15:00:47.449Z,83.00
2022-11-29T15:03:42.730Z,73.90
2022-11-29T15:06:23.385Z,73.40
2022-11-29T15:09:02.718Z,65.60
2022-11-29T15:11:34.250Z,64.90
2022-11-29T15:14:19.486Z,65.80
2022-11-29T15:17:03.917Z,63.70
2022-11-29T15:20:02.955Z,71.20
2022-11-29T15:22:36.823Z,73.80
2022-11-29T15:25:14.615Z,81.30
2022-11-29T15:27:52.783Z,88.00
2022-11-29T15:30:28.464Z,79.20
2022-11-29T15:32:58.565Z,83.10
2022-11-29T15:35:28.055Z,84.30
2022-11-29T15:37:56.375Z,85.80
2022-11-29T15:40:37.294Z,81.10
2022-11-29T15:43:26.427Z,82.00
2022-11-29T15:45:57.063Z,88.70
2022-11-29T15:48:30.736Z,76.70
2022-11-29T15:51:06.039Z,78.70
2022-11-29T15:54:12.780Z,79.10
2022-11-29T15:56:54.465Z,76.30
2022-11-29T15:59:53.725Z,78.60
2022-11-29T16:02:25.267Z,80.30
2022-11-29T16:04:58.208Z,75.80
2022-11-29T16:07:32.355Z,74.60
2022-11-29T16:10:40.391Z,78.60
2022-11-29T16:13:33.939Z,72.20
2022-11-29T16:16:21.608Z,94.90
2022-11-29T16:18:50.830Z,92.90
2022-11-29T16:21:30.673Z,97.10
2022-11-29T16:24:10.795Z,110.60
2022-11-29T16:26:44.013Z,99.40
2022-11-29T16:29:34.075Z,103.10
2022-11-29T16:32:23.882Z,105.00
2022-11-29T16:34:52.874Z,105.40
2022-11-29T16:37:26.314Z,99.60
2022-11-29T16:40:00.196Z,92.50
2022-11-29T16:42:30.707Z,100.00
2022-11-29T16:45:09.273Z,96.40
2022-11-29T16:47:59.313Z,92.80
2022-11-29T16:50:32.606Z,81.70
2022-11-29T16:53:42.209Z,88.90
2022-11-29T16:56:15.287Z,90.60
2022-11-29T16:59:24.862Z,95.30
2022-11-29T17:01:34.054Z,105.80
2022-11-29T17:04:02.191Z,100.20
2022-11-29T17:06:30.717Z,115.60
2022-11-29T17:08:59.758Z,127.50
2022-11-29T17:11:27.811Z,112.50
2022-11-29T17:13:56.053Z,116.60
2022-11-29T17:16:24.810Z,123.60
2022-11-29T17:18:53.738Z,113.60
2022-11-29T17:21:24.832Z,111.80
2022-11-29T17:26:22.564Z,130.70
2022-11-29T17:28:52.013Z,194.30
2022-11-29T17:31:24.344Z,215.90
2022-11-29T17:33:52.563Z,232.30
2022-11-29T17:36:21.214Z,201.10
2022-11-29T17:38:49.096Z,191.10
2022-11-29T17:41:20.937Z,186.50
2022-11-29T17:43:50.429Z,176.10
2022-11-29T17:46:30.316Z,177.70
2022-11-29T17:49:00.335Z,149.60
2022-11-29T17:51:51.038Z,149.30
2022-11-29T17:54:16.772Z,168.90
2022-11-29T17:56:44.967Z,152.50
2022-11-29T17:59:12.809Z,156.40
2022-11-29T18:01:40.719Z,156.30
2022-11-29T18:04:08.631Z,183.30
2022-11-29T18:06:39.096Z,175.70
2022-11-29T18:09:09.578Z,186.60
2022-11-29T18:11:47.608Z,160.50
2022-11-29T18:14:25.283Z,151.90
2022-11-29T18:16:53.720Z,146.40
2022-11-29T18:19:22.773Z,146.90
2022-11-29T18:21:51.408Z,139.60
2022-11-29T18:24:19.680Z,147.20
2022-11-29T18:26:47.780Z,155.40
2022-11-29T18:29:16.021Z,150.60
2022-11-29T18:31:45.215Z,158.30
2022-11-29T18:34:14.547Z,168.50
2022-11-29T18:36:47.403Z,161.50
2022-11-29T18:39:18.384Z,163.80
2022-11-29T18:41:48.394Z,171.50
2022-11-29T18:44:18.918Z,171.40
2022-11-29T18:46:47.203Z,171.30
2022-11-29T18:49:17.207Z,170.30
2022-11-29T18:51:46.623Z,172.50
2022-11-29T18:54:16.634Z,156.20
2022-11-29T18:56:45.836Z,154.30
2022-11-29T18:59:19.127Z,145.80
2022-11-29T19:01:48.463Z,140.20
2022-11-29T19:04:19.150Z,129.80
2022-11-29T19:06:47.489Z,144.10
2022-11-29T19:09:21.667Z,145.20
2022-11-29T19:11:50.337Z,148.60
2022-11-29T19:14:19.196Z,143.70
2022-11-29T19:16:49.787Z,139.50
2022-11-29T19:19:21.365Z,144.30
2022-11-29T19:21:49.317Z,138.00
2022-11-29T19:24:18.687Z,156.40
2022-11-29T19:26:49.694Z,150.60
2022-11-29T19:29:18.051Z,146.90
2022-11-29T19:31:46.128Z,142.00
2022-11-29T19:34:14.134Z,149.00
2022-11-29T19:36:43.581Z,145.20
2022-11-29T19:39:18.031Z,141.60
2022-11-29T19:41:47.749Z,140.60
2022-11-29T19:44:15.951Z,121.70
2022-11-29T19:46:48.266Z,109.20
2022-11-29T19:49:16.259Z,124.80
2022-11-29T19:51:44.157Z,132.50
2022-11-29T19:54:12.421Z,124.70
2022-11-29T19:56:40.504Z,114.70
2022-11-29T19:59:08.902Z,117.20
2022-11-29T20:01:41.548Z,118.30
2022-11-29T20:04:12.720Z,111.60
2022-11-29T20:06:41.046Z,105.50
2022-11-29T20:09:10.842Z,110.90
2022-11-29T20:11:38.928Z,105.70
2022-11-29T20:14:08.231Z,109.90
2022-11-29T20:16:38.130Z,110.90
2022-11-29T20:19:11.067Z,110.40
2022-11-29T20:21:48.816Z,107.30
2022-11-29T20:24:17.817Z,110.50
2022-11-29T20:26:47.664Z,110.00
2022-11-29T20:29:16.604Z,110.20
2022-11-29T20:31:49.918Z,112.20
2022-11-29T20:34:19.971Z,114.60
2022-11-29T20:37:12.988Z,122.80
2022-11-29T20:39:52.972Z,114.00
2022-11-29T20:42:38.648Z,112.70
2022-11-29T20:45:09.114Z,111.00
2022-11-29T20:48:11.311Z,112.50
2022-11-29T20:50:40.443Z,95.80
2022-11-29T20:53:32.985Z,103.80
2022-11-29T20:56:04.543Z,97.40
2022-11-29T20:58:33.684Z,95.60
2022-11-29T21:01:02.935Z,92.20
2022-11-29T21:03:31.262Z,94.50
2022-11-29T21:06:02.994Z,100.90
2022-11-29T21:08:31.509Z,108.00
2022-11-29T21:11:11.520Z,105.00
2022-11-29T21:13:39.689Z,108.60
2022-11-29T21:16:09.984Z,117.40
2022-11-29T21:18:38.475Z,112.30
2022-11-29T21:21:23.877Z,117.00
2022-11-29T21:24:38.215Z,97.50
2022-11-29T21:27:13.563Z,85.20
2022-11-29T21:29:42.236Z,82.40
2022-11-29T21:32:22.190Z,87.90
2022-11-29T21:34:50.129Z,78.70
2022-11-29T21:37:21.831Z,85.40
2022-11-29T21:39:51.599Z,78.40
2022-11-29T21:42:20.454Z,79.00
2022-11-29T21:44:48.566Z,80.10
2022-11-29T21:47:16.731Z,76.10
2022-11-29T21:49:46.431Z,87.00
2022-11-29T21:52:20.714Z,87.70
2022-11-29T21:54:50.604Z,93.00
2022-11-29T21:57:18.766Z,93.70
2022-11-29T21:59:46.636Z,99.40
2022-11-29T22:02:15.002Z,96.90
2022-11-29T22:04:43.595Z,100.80
2022-11-29T22:07:11.642Z,98.70
2022-11-29T22:09:39.752Z,103.30
2022-11-29T22:12:31.805Z,99.70
2022-11-29T22:14:55.710Z,82.90
2022-11-29T22:17:23.918Z,72.40
2022-11-29T22:19:51.756Z,64.30
2022-11-29T22:22:19.856Z,71.70
2022-11-29T22:24:48.040Z,73.70
2022-11-29T22:27:18.495Z,80.10
2022-11-29T22:29:46.529Z,84.10
2022-11-29T22:32:15.011Z,109.70
2022-11-29T22:34:42.986Z,156.70
2022-11-29T22:37:12.485Z,133.60
2022-11-29T22:39:40.491Z,115.20
2022-11-29T22:42:08.410Z,114.10
2022-11-29T22:44:36.383Z,101.60
2022-11-29T22:47:04.290Z,116.20
2022-11-29T22:49:33.306Z,111.90
2022-11-29T22:52:01.216Z,118.40
2022-11-29T22:54:29.185Z,113.50
2022-11-29T22:56:57.036Z,117.40
2022-11-29T22:59:24.916Z,117.10
2022-11-29T23:01:52.984Z,119.90
2022-11-29T23:04:21.157Z,140.70
2022-11-29T23:06:49.234Z,150.50
2022-11-29T23:09:20.342Z,152.50
2022-11-29T23:11:55.795Z,177.10
2022-11-29T23:14:24.346Z,181.00
2022-11-29T23:16:53.044Z,154.40
2022-11-29T23:19:22.422Z,147.70
2022-11-29T23:21:50.574Z,140.00
2022-11-29T23:24:18.681Z,152.90
2022-11-29T23:26:47.825Z,144.80
2022-11-29T23:29:18.036Z,159.60
2022-11-29T23:31:46.983Z,157.30
2022-11-29T23:34:15.290Z,124.30
2022-11-29T23:36:46.908Z,156.40
2022-11-29T23:39:17.679Z,153.80
2022-11-29T23:41:45.594Z,152.60
2022-11-29T23:44:13.493Z,141.50
2022-11-29T23:46:41.562Z,152.60
2022-11-29T23:49:09.683Z,136.70
2022-11-29T23:51:37.649Z,141.30
2022-11-29T23:54:05.635Z,134.20
2022-11-29T23:56:35.650Z,135.90
2022-11-29T23:59:03.802Z,141.80
